Kantner, PA (15548)

6:57 AM EDT on May 29, 2015 (GMT -0400)
Indian Lake | | Change Station
CLOSE
Current Station
Personal Weather Station
Location: Central City, PA
Elevation: 2297 ft
Nearby Weather Stations

Elev 2297 ft 40.05 °N, 78.87 °W | Updated 16 seconds ago

Mostly Cloudy
Mostly Cloudy
60.1 °F
Feels Like 60.1 °F
N
0.0
Wind Variable Wind from WSW
Gusts 0.0 mph

Today
High -- | Low -- °F
--% Chance of Precip.
Yesterday
High -- | Low -- °F
Precip. -- in
5:50 AM 8:36 PM
Waxing Gibbous, 83% visible
Pressure 30.26 in
Visibility 10.0 miles
Clouds Few 6500 ft
Dew Point 53 °F
Humidity 77%
Rainfall 0.00 in
Snow Depth Not available.
UV 1.0 out of 12
Pollen 9.10 out of 12
Air Quality Not available.
Flu Activity Sporadic
METAR KJST 290954Z AUTO 10005KT 10SM FEW065 17/09 A3029 RMK AO2 SLP247 T01670094

More Conditions Fewer Conditions

Pressure 30.26 in
Visibility 10.0 miles
Clouds Few 6500 ft
Dew Point 53 °F
Humidity 77%
Rainfall 0.00 in
Snow Depth Not available.
UV 1.0 out of 12
Pollen 9.10 out of 12
Air Quality Not available.
Flu Activity Sporadic
METAR KJST 290954Z AUTO 10005KT 10SM FEW065 17/09 A3029 RMK AO2 SLP247 T01670094

More Conditions Fewer Conditions

10-Day Weather Forecast

Almanac

Astronomy

May. 29, 2015 Rise Set
Actual Time
Civil Twilight
Nautical Twilight
Astronomical Twilight
Moon
Length of Visible Light
Length of Day
Tomorrow will be .
, % of the Moon is Illuminated

Today's Extremes

State Highs State Lows

Community

WunderPhotos

Upload Photos

1,825,233 photos uploaded!

WunderBlogs® & News

Nearby

Air Quality

  Air Quality AQ Index Pollutant
Not available.

Snow Depth

Station Depth Elevation

Earthquake Activity

City Distance Mag. Time & Date
Minimum magnitude displayed is 2.5.

Coastal Water Temperatures

Place Temperature

Stations

Nearby Weather Stations

Station Location Temp. Windchill Dew Point Humidity Wind Precip. Elev Updated Type